createdAt,value
2023-04-29T00:00:04.339Z,1010.50
2023-04-29T00:01:04.339Z,1010.47
2023-04-29T00:02:04.366Z,1010.50
2023-04-29T00:03:04.431Z,1010.54
2023-04-29T00:04:04.488Z,1010.43
2023-04-29T00:05:04.489Z,1010.44
2023-04-29T00:06:04.421Z,1010.47
2023-04-29T00:07:04.276Z,1010.44
2023-04-29T00:08:04.242Z,1010.52
2023-04-29T00:09:04.211Z,1010.50
2023-04-29T00:10:11.804Z,1010.53
2023-04-29T00:11:04.213Z,1010.50
2023-04-29T00:12:04.174Z,1010.56
2023-04-29T00:13:04.163Z,1010.49
2023-04-29T00:14:04.161Z,1010.48
2023-04-29T00:15:04.158Z,1010.45
2023-04-29T00:16:04.144Z,1010.45
2023-04-29T00:17:04.227Z,1010.47
2023-04-29T00:18:04.190Z,1010.45
2023-04-29T00:19:04.099Z,1010.51
2023-04-29T00:20:04.076Z,1010.54
2023-04-29T00:21:04.062Z,1010.50
2023-04-29T00:22:04.052Z,1010.48
2023-04-29T00:23:04.054Z,1010.48
2023-04-29T00:24:04.040Z,1010.52
2023-04-29T00:25:03.990Z,1010.54
2023-04-29T00:26:04.061Z,1010.50
2023-04-29T00:27:03.964Z,1010.53
2023-04-29T00:28:03.962Z,1010.60
2023-04-29T00:29:03.977Z,1010.59
2023-04-29T00:30:03.957Z,1010.68
2023-04-29T00:31:04.006Z,1010.62
2023-04-29T00:32:03.936Z,1010.62
2023-04-29T00:33:04.001Z,1010.69
2023-04-29T00:34:03.902Z,1010.62
2023-04-29T00:35:03.870Z,1010.59
2023-04-29T00:36:03.881Z,1010.65
2023-04-29T00:37:03.832Z,1010.65
2023-04-29T00:38:03.873Z,1010.67
2023-04-29T00:39:03.835Z,1010.67
2023-04-29T00:40:03.836Z,1010.65
2023-04-29T00:41:03.815Z,1010.71
2023-04-29T00:42:03.776Z,1010.69
2023-04-29T00:43:03.774Z,1010.75
2023-04-29T00:44:03.849Z,1010.80
2023-04-29T00:45:03.760Z,1010.79
2023-04-29T00:46:03.879Z,1010.72
2023-04-29T00:47:03.708Z,1010.74
2023-04-29T00:48:03.741Z,1010.79
2023-04-29T00:49:03.704Z,1010.76
2023-04-29T00:50:03.690Z,1010.72
2023-04-29T00:51:03.702Z,1010.77
2023-04-29T00:52:03.688Z,1010.80
2023-04-29T00:53:03.643Z,1010.77
2023-04-29T00:54:03.772Z,1010.80
2023-04-29T00:55:03.622Z,1010.78
2023-04-29T00:56:03.654Z,1010.83
2023-04-29T00:57:03.607Z,1010.84
2023-04-29T00:58:03.606Z,1010.85
2023-04-29T00:59:03.593Z,1010.80
2023-04-29T01:00:03.544Z,1010.94
2023-04-29T01:01:03.551Z,1010.89
2023-04-29T01:02:03.549Z,1010.94
2023-04-29T01:03:03.575Z,1010.83
2023-04-29T01:04:03.594Z,1010.99
2023-04-29T01:05:03.505Z,1010.96
2023-04-29T01:06:03.512Z,1011.00
2023-04-29T01:07:03.522Z,1010.91
2023-04-29T01:08:03.445Z,1010.89
2023-04-29T01:09:03.439Z,1010.90
2023-04-29T01:10:03.466Z,1010.98
2023-04-29T01:11:03.419Z,1010.98
2023-04-29T01:12:03.426Z,1010.98
2023-04-29T01:13:03.383Z,1011.02
2023-04-29T01:14:03.393Z,1011.08
2023-04-29T01:15:03.377Z,1011.06
2023-04-29T01:16:03.387Z,1011.07
2023-04-29T01:17:03.382Z,1011.05
2023-04-29T01:18:03.415Z,1011.04
2023-04-29T01:19:03.318Z,1011.14
2023-04-29T01:20:03.296Z,1011.09
2023-04-29T01:21:03.279Z,1011.12
2023-04-29T01:22:03.305Z,1011.11
2023-04-29T01:23:03.227Z,1011.07
2023-04-29T01:24:03.247Z,1011.12
2023-04-29T01:25:03.252Z,1011.12
2023-04-29T01:26:03.201Z,1011.18
2023-04-29T01:27:03.240Z,1011.14
2023-04-29T01:28:03.226Z,1011.16
2023-04-29T01:29:03.194Z,1011.08
2023-04-29T01:30:03.176Z,1011.15
2023-04-29T01:31:03.216Z,1011.20
2023-04-29T01:32:03.144Z,1011.19
2023-04-29T01:33:03.197Z,1011.12
2023-04-29T01:34:03.248Z,1011.14
2023-04-29T01:35:03.078Z,1011.10
2023-04-29T01:36:03.131Z,1011.15
2023-04-29T01:37:03.046Z,1011.15
2023-04-29T01:38:03.082Z,1011.18
2023-04-29T01:39:03.023Z,1011.13
2023-04-29T01:40:03.080Z,1011.16
2023-04-29T01:41:03.009Z,1011.15
2023-04-29T01:42:03.703Z,1011.19
2023-04-29T01:43:03.004Z,1011.16
2023-04-29T01:44:03.000Z,1011.20
2023-04-29T01:45:03.102Z,1011.21
2023-04-29T01:46:02.948Z,1011.21
2023-04-29T01:47:03.024Z,1011.18
2023-04-29T01:48:03.141Z,1011.21
2023-04-29T01:49:02.892Z,1011.15
2023-04-29T01:50:02.905Z,1011.20
2023-04-29T01:51:02.874Z,1011.20
2023-04-29T01:52:02.894Z,1011.23
2023-04-29T01:53:02.893Z,1011.23
2023-04-29T01:54:02.865Z,1011.20
2023-04-29T01:55:02.820Z,1011.27
2023-04-29T01:56:02.849Z,1011.31
2023-04-29T01:57:02.820Z,1011.32
2023-04-29T01:58:02.828Z,1011.32
2023-04-29T01:59:02.762Z,1011.33
2023-04-29T02:00:02.778Z,1011.33
2023-04-29T02:01:02.796Z,1011.35
2023-04-29T02:02:02.758Z,1011.34
2023-04-29T02:03:02.799Z,1011.30
2023-04-29T02:04:02.808Z,1011.36
2023-04-29T02:05:02.695Z,1011.36
2023-04-29T02:06:02.721Z,1011.34
2023-04-29T02:07:02.687Z,1011.30
2023-04-29T02:08:02.682Z,1011.27
2023-04-29T02:09:02.687Z,1011.31
2023-04-29T02:10:02.677Z,1011.39
2023-04-29T02:11:02.615Z,1011.38
2023-04-29T02:12:02.615Z,1011.39
2023-04-29T02:13:02.594Z,1011.33
2023-04-29T02:14:02.607Z,1011.37
2023-04-29T02:15:02.556Z,1011.32
2023-04-29T02:16:02.626Z,1011.43
2023-04-29T02:17:02.533Z,1011.41
2023-04-29T02:18:02.595Z,1011.37
2023-04-29T02:19:02.512Z,1011.40
2023-04-29T02:20:02.516Z,1011.44
2023-04-29T02:21:02.480Z,1011.39
2023-04-29T02:22:02.489Z,1011.40
2023-04-29T02:23:02.500Z,1011.39
2023-04-29T02:24:02.478Z,1011.37
2023-04-29T02:25:02.424Z,1011.36
2023-04-29T02:26:02.437Z,1011.38
2023-04-29T02:27:02.424Z,1011.42
2023-04-29T02:28:02.466Z,1011.44
2023-04-29T02:29:02.387Z,1011.42
2023-04-29T02:30:02.431Z,1011.46
2023-04-29T02:31:02.421Z,1011.42
2023-04-29T02:32:02.430Z,1011.44
2023-04-29T02:33:02.438Z,1011.47
2023-04-29T02:34:02.336Z,1011.50
2023-04-29T02:35:02.307Z,1011.49
2023-04-29T02:36:02.341Z,1011.50
2023-04-29T02:37:02.341Z,1011.48
2023-04-29T02:38:02.302Z,1011.50
2023-04-29T02:39:02.316Z,1011.52
2023-04-29T02:40:02.272Z,1011.49
2023-04-29T02:41:02.252Z,1011.53
2023-04-29T02:42:02.237Z,1011.54
2023-04-29T02:43:02.257Z,1011.50
2023-04-29T02:44:02.216Z,1011.51
2023-04-29T02:45:02.236Z,1011.54
2023-04-29T02:46:02.267Z,1011.58
2023-04-29T02:47:02.169Z,1011.61
2023-04-29T02:48:02.208Z,1011.60
2023-04-29T02:49:02.118Z,1011.58
2023-04-29T02:50:02.152Z,1011.57
2023-04-29T02:51:02.116Z,1011.64
2023-04-29T02:52:02.117Z,1011.61
2023-04-29T02:53:02.071Z,1011.68
2023-04-29T02:54:02.107Z,1011.59
2023-04-29T02:55:02.046Z,1011.65
2023-04-29T02:56:02.072Z,1011.61
2023-04-29T02:57:02.041Z,1011.69
2023-04-29T02:58:02.114Z,1011.63
2023-04-29T02:59:02.031Z,1011.65
2023-04-29T03:00:02.002Z,1011.64
2023-04-29T03:01:02.013Z,1011.73
2023-04-29T03:02:02.029Z,1011.65
2023-04-29T03:03:02.172Z,1011.70
2023-04-29T03:04:02.199Z,1011.66
2023-04-29T03:05:01.941Z,1011.73
2023-04-29T03:06:01.914Z,1011.76
2023-04-29T03:07:01.905Z,1011.68
2023-04-29T03:08:01.959Z,1011.72
2023-04-29T03:09:01.865Z,1011.81
2023-04-29T03:10:01.863Z,1011.82
2023-04-29T03:11:01.868Z,1011.79
2023-04-29T03:12:01.832Z,1011.81
2023-04-29T03:13:01.841Z,1011.78
2023-04-29T03:14:01.816Z,1011.77
2023-04-29T03:15:01.785Z,1011.81
2023-04-29T03:16:01.794Z,1011.85
2023-04-29T03:17:01.844Z,1011.84
2023-04-29T03:18:02.011Z,1011.82
2023-04-29T03:19:01.785Z,1011.87
2023-04-29T03:20:01.735Z,1011.87
2023-04-29T03:21:01.716Z,1011.86
2023-04-29T03:22:01.736Z,1011.91
2023-04-29T03:23:01.677Z,1011.88
2023-04-29T03:24:01.698Z,1011.88
2023-04-29T03:25:01.656Z,1011.87
2023-04-29T03:26:01.757Z,1011.88
2023-04-29T03:27:01.622Z,1011.93
2023-04-29T03:28:01.627Z,1011.95
2023-04-29T03:29:01.609Z,1011.91
2023-04-29T03:30:01.612Z,1012.00
2023-04-29T03:31:01.629Z,1011.95
2023-04-29T03:32:01.561Z,1011.95
2023-04-29T03:33:01.600Z,1011.96
2023-04-29T03:34:01.562Z,1011.96
2023-04-29T03:35:01.527Z,1011.97
2023-04-29T03:36:01.524Z,1011.95
2023-04-29T03:37:01.504Z,1012.03
2023-04-29T03:38:01.535Z,1011.93
2023-04-29T03:39:01.468Z,1011.92
2023-04-29T03:40:01.488Z,1012.00
2023-04-29T03:41:01.429Z,1011.98
2023-04-29T03:42:01.446Z,1012.04
2023-04-29T03:43:01.415Z,1012.00
2023-04-29T03:44:01.448Z,1011.96
2023-04-29T03:45:01.371Z,1012.07
2023-04-29T03:46:01.457Z,1012.01
2023-04-29T03:47:01.372Z,1012.06
2023-04-29T03:48:01.461Z,1012.00
2023-04-29T03:49:01.390Z,1011.97
2023-04-29T03:50:01.330Z,1012.08
2023-04-29T03:51:01.314Z,1012.08
2023-04-29T03:52:01.312Z,1012.07
2023-04-29T03:53:01.306Z,1012.07
2023-04-29T03:54:01.300Z,1012.09
2023-04-29T03:55:01.285Z,1012.12
2023-04-29T03:56:01.265Z,1012.16
2023-04-29T03:57:01.212Z,1012.07
2023-04-29T03:58:01.242Z,1012.13
2023-04-29T03:59:01.214Z,1012.13
2023-04-29T04:00:01.192Z,1012.13
2023-04-29T04:01:01.208Z,1012.17
2023-04-29T04:02:01.196Z,1012.15
2023-04-29T04:03:04.395Z,1012.18
2023-04-29T04:04:01.392Z,1012.13
2023-04-29T04:05:01.298Z,1012.17
2023-04-29T04:06:01.122Z,1012.17
2023-04-29T04:07:01.101Z,1012.17
2023-04-29T04:08:01.137Z,1012.23
2023-04-29T04:09:01.106Z,1012.19
2023-04-29T04:10:01.043Z,1012.26
2023-04-29T04:11:01.033Z,1012.25
2023-04-29T04:12:01.045Z,1012.24
2023-04-29T04:13:01.072Z,1012.31
2023-04-29T04:14:01.007Z,1012.30
2023-04-29T04:15:01.034Z,1012.24
2023-04-29T04:16:00.987Z,1012.25
2023-04-29T04:17:00.965Z,1012.36
2023-04-29T04:18:00.977Z,1012.25
2023-04-29T04:19:00.958Z,1012.35
2023-04-29T04:20:00.946Z,1012.30
2023-04-29T04:21:00.931Z,1012.32
2023-04-29T04:22:00.896Z,1012.40
2023-04-29T04:23:00.880Z,1012.39
2023-04-29T04:24:00.902Z,1012.35
2023-04-29T04:25:00.853Z,1012.36
2023-04-29T04:26:00.855Z,1012.38
2023-04-29T04:27:00.853Z,1012.45
2023-04-29T04:28:00.841Z,1012.49
2023-04-29T04:29:00.899Z,1012.43
2023-04-29T04:30:00.824Z,1012.46
2023-04-29T04:31:00.785Z,1012.46
2023-04-29T04:32:00.836Z,1012.44
2023-04-29T04:33:00.831Z,1012.41
2023-04-29T04:34:00.744Z,1012.44
2023-04-29T04:35:00.725Z,1012.48
2023-04-29T04:36:00.731Z,1012.48
2023-04-29T04:37:00.728Z,1012.46
2023-04-29T04:38:00.723Z,1012.55
2023-04-29T04:39:00.749Z,1012.47
2023-04-29T04:40:00.655Z,1012.55
2023-04-29T04:41:00.653Z,1012.58
2023-04-29T04:42:00.652Z,1012.60
2023-04-29T04:43:00.619Z,1012.58
2023-04-29T04:44:00.608Z,1012.66
2023-04-29T04:45:00.631Z,1012.64
2023-04-29T04:46:00.624Z,1012.62
2023-04-29T04:47:00.598Z,1012.64
2023-04-29T04:48:00.577Z,1012.65
2023-04-29T04:49:00.619Z,1012.65
2023-04-29T04:50:00.525Z,1012.67
2023-04-29T04:51:00.541Z,1012.69
2023-04-29T04:52:00.521Z,1012.68
2023-04-29T04:53:00.526Z,1012.76
2023-04-29T04:54:00.483Z,1012.77
2023-04-29T04:55:00.505Z,1012.79
2023-04-29T04:56:00.466Z,1012.79
2023-04-29T04:57:00.444Z,1012.82
2023-04-29T04:58:00.440Z,1012.81
2023-04-29T04:59:00.475Z,1012.79
2023-04-29T05:00:00.394Z,1012.82
2023-04-29T05:01:00.426Z,1012.84
2023-04-29T05:02:00.424Z,1012.89
2023-04-29T05:03:00.605Z,1012.88
2023-04-29T05:04:00.600Z,1012.88
2023-04-29T05:05:00.379Z,1012.90
2023-04-29T05:06:00.340Z,1012.90
2023-04-29T05:07:00.341Z,1012.86
2023-04-29T05:08:00.302Z,1012.88
2023-04-29T05:09:00.369Z,1012.93
2023-04-29T05:10:00.256Z,1012.94
2023-04-29T05:11:00.278Z,1012.98
2023-04-29T05:12:00.304Z,1012.99
2023-04-29T05:13:00.285Z,1013.01
2023-04-29T05:14:00.219Z,1013.00
2023-04-29T05:15:00.219Z,1013.00
2023-04-29T05:16:00.215Z,1013.06
2023-04-29T05:17:00.223Z,1013.03
2023-04-29T05:18:00.335Z,1013.05
2023-04-29T05:19:00.236Z,1013.09
2023-04-29T05:20:00.156Z,1013.10
2023-04-29T05:21:00.164Z,1013.08
2023-04-29T05:22:00.159Z,1013.14
2023-04-29T05:23:00.163Z,1013.14
2023-04-29T05:24:00.117Z,1013.09
2023-04-29T05:25:00.084Z,1013.11
2023-04-29T05:26:00.053Z,1013.17
2023-04-29T05:27:00.044Z,1013.13
2023-04-29T05:28:00.050Z,1013.15
2023-04-29T05:29:00.130Z,1013.15
2023-04-29T05:29:59.984Z,1013.15
2023-04-29T05:31:00.058Z,1013.17
2023-04-29T05:32:00.045Z,1013.21
2023-04-29T05:33:00.027Z,1013.13
2023-04-29T05:33:59.985Z,1013.17
2023-04-29T05:34:59.995Z,1013.19
2023-04-29T05:35:59.940Z,1013.15
2023-04-29T05:36:59.909Z,1013.16
2023-04-29T05:37:59.905Z,1013.20
2023-04-29T05:38:59.979Z,1013.20
2023-04-29T05:39:59.863Z,1013.21
2023-04-29T05:40:59.886Z,1013.23
2023-04-29T05:41:59.830Z,1013.23
2023-04-29T05:42:59.832Z,1013.28
2023-04-29T05:43:59.857Z,1013.22
2023-04-29T05:44:59.795Z,1013.29
2023-04-29T05:45:59.810Z,1013.37
2023-04-29T05:46:59.813Z,1013.34
2023-04-29T05:47:59.854Z,1013.38
2023-04-29T05:48:59.815Z,1013.37
2023-04-29T05:49:59.767Z,1013.31
2023-04-29T05:50:59.742Z,1013.38
2023-04-29T05:51:59.694Z,1013.36
2023-04-29T05:52:59.741Z,1013.44
2023-04-29T05:53:59.711Z,1013.44
2023-04-29T05:54:59.670Z,1013.46
2023-04-29T05:55:59.642Z,1013.46
2023-04-29T05:56:59.656Z,1013.43
2023-04-29T05:57:59.673Z,1013.51
2023-04-29T05:58:59.653Z,1013.50
2023-04-29T05:59:59.594Z,1013.51
2023-04-29T06:01:00.099Z,1013.50
2023-04-29T06:01:59.618Z,1013.55
2023-04-29T06:02:59.726Z,1013.53
2023-04-29T06:03:59.901Z,1013.58
2023-04-29T06:04:59.761Z,1013.60
2023-04-29T06:05:59.779Z,1013.57
2023-04-29T06:06:59.609Z,1013.59
2023-04-29T06:07:59.502Z,1013.61
2023-04-29T06:08:59.839Z,1013.62
2023-04-29T06:09:59.593Z,1013.64
2023-04-29T06:10:59.629Z,1013.65
2023-04-29T06:11:59.447Z,1013.65
2023-04-29T06:12:59.488Z,1013.72
2023-04-29T06:15:12.021Z,1013.77
2023-04-29T06:16:12.047Z,1013.79
2023-04-29T06:17:12.028Z,1013.80
2023-04-29T06:18:11.941Z,1013.85
2023-04-29T06:19:12.048Z,1013.90
2023-04-29T06:20:11.908Z,1013.88
2023-04-29T06:21:11.871Z,1013.77
2023-04-29T06:22:11.923Z,1013.84
2023-04-29T06:23:11.895Z,1013.86
2023-04-29T06:24:11.928Z,1013.90
2023-04-29T06:25:11.937Z,1013.87
2023-04-29T06:26:11.845Z,1013.95
2023-04-29T06:27:11.889Z,1013.95
2023-04-29T06:28:11.802Z,1013.98
2023-04-29T06:29:11.848Z,1013.96
2023-04-29T06:30:11.807Z,1013.97
2023-04-29T06:31:11.826Z,1013.95
2023-04-29T06:32:11.857Z,1014.01
2023-04-29T06:33:11.850Z,1014.03
2023-04-29T06:34:11.732Z,1014.03
2023-04-29T06:35:11.757Z,1014.03
2023-04-29T06:36:11.748Z,1013.99
2023-04-29T06:37:11.681Z,1013.99
2023-04-29T06:38:11.692Z,1014.04
2023-04-29T06:39:11.777Z,1014.05
2023-04-29T06:40:11.710Z,1014.03
2023-04-29T06:41:11.683Z,1014.09
2023-04-29T06:42:11.709Z,1014.07
2023-04-29T06:43:11.683Z,1014.07
2023-04-29T06:44:11.677Z,1014.10
2023-04-29T06:45:11.586Z,1014.14
2023-04-29T06:46:11.635Z,1014.13
2023-04-29T06:47:11.766Z,1014.10
2023-04-29T06:48:11.582Z,1014.12
2023-04-29T06:49:11.620Z,1014.19
2023-04-29T06:50:11.540Z,1014.21
2023-04-29T06:51:11.534Z,1014.16
2023-04-29T06:52:11.520Z,1014.20
2023-04-29T06:53:11.493Z,1014.21
2023-04-29T06:54:11.538Z,1014.22
2023-04-29T06:55:11.444Z,1014.24
2023-04-29T06:56:11.510Z,1014.20
2023-04-29T06:57:11.438Z,1014.23
2023-04-29T06:58:11.487Z,1014.27
2023-04-29T06:59:11.421Z,1014.26
2023-04-29T07:00:11.637Z,1014.26
2023-04-29T07:01:11.438Z,1014.26
2023-04-29T07:02:11.395Z,1014.27
2023-04-29T07:03:11.664Z,1014.28
2023-04-29T07:04:11.466Z,1014.28
2023-04-29T07:05:11.367Z,1014.27
2023-04-29T07:06:11.352Z,1014.31
2023-04-29T07:07:11.305Z,1014.35
2023-04-29T07:08:11.323Z,1014.39
2023-04-29T07:09:11.310Z,1014.35
2023-04-29T07:10:11.321Z,1014.39
2023-04-29T07:11:11.282Z,1014.39
2023-04-29T07:12:11.366Z,1014.39
2023-04-29T07:13:11.222Z,1014.37
2023-04-29T07:14:11.214Z,1014.44
2023-04-29T07:15:11.274Z,1014.39
2023-04-29T07:16:11.317Z,1014.42
2023-04-29T07:17:14.118Z,1014.46
2023-04-29T07:18:11.247Z,1014.42
2023-04-29T07:19:11.182Z,1014.48
2023-04-29T07:20:11.157Z,1014.52
2023-04-29T07:21:11.150Z,1014.55
2023-04-29T07:22:11.108Z,1014.55
2023-04-29T07:23:11.128Z,1014.55
2023-04-29T07:24:11.114Z,1014.57
2023-04-29T07:25:11.154Z,1014.60
2023-04-29T07:26:11.074Z,1014.60
2023-04-29T07:27:11.082Z,1014.62
2023-04-29T07:28:11.034Z,1014.67
2023-04-29T07:29:11.058Z,1014.68
2023-04-29T07:30:11.015Z,1014.71
2023-04-29T07:31:11.086Z,1014.69
2023-04-29T07:32:11.027Z,1014.68
2023-04-29T07:33:10.951Z,1014.75
2023-04-29T07:34:11.011Z,1014.74
2023-04-29T07:35:10.962Z,1014.69
2023-04-29T07:36:10.936Z,1014.76
2023-04-29T07:37:10.975Z,1014.74
2023-04-29T07:38:10.900Z,1014.75
2023-04-29T07:39:11.869Z,1014.81
2023-04-29T07:40:11.168Z,1014.79
2023-04-29T07:41:10.884Z,1014.81
2023-04-29T07:42:10.937Z,1014.77
2023-04-29T07:43:10.885Z,1014.81
2023-04-29T07:44:10.953Z,1014.83
2023-04-29T07:45:10.824Z,1014.87
2023-04-29T07:46:10.898Z,1014.84
2023-04-29T07:47:10.848Z,1014.87
2023-04-29T07:48:10.758Z,1014.85
2023-04-29T07:49:10.774Z,1014.82
2023-04-29T07:50:10.929Z,1014.84
2023-04-29T07:51:10.747Z,1014.87
2023-04-29T07:52:10.705Z,1014.81
2023-04-29T07:53:10.750Z,1014.83
2023-04-29T07:54:10.693Z,1014.90
2023-04-29T07:55:10.688Z,1014.90
2023-04-29T07:56:10.730Z,1014.82
2023-04-29T07:57:10.672Z,1014.90
2023-04-29T07:58:10.674Z,1014.94
2023-04-29T07:59:10.657Z,1014.95
2023-04-29T08:00:10.667Z,1014.86
2023-04-29T08:01:10.646Z,1014.97
2023-04-29T08:02:10.618Z,1014.95
2023-04-29T08:03:10.734Z,1015.00
2023-04-29T08:04:10.994Z,1014.97
2023-04-29T08:05:11.082Z,1015.00
2023-04-29T08:06:10.870Z,1014.98
2023-04-29T08:07:10.613Z,1015.03
2023-04-29T08:08:10.528Z,1015.00
2023-04-29T08:09:11.081Z,1014.96
2023-04-29T08:10:10.589Z,1015.03
2023-04-29T08:11:10.570Z,1015.18
2023-04-29T08:12:10.522Z,1015.06
2023-04-29T08:13:11.039Z,1015.16
2023-04-29T08:14:10.660Z,1015.16
2023-04-29T08:15:10.432Z,1015.16
2023-04-29T08:16:10.462Z,1015.09
2023-04-29T08:17:10.717Z,1015.11
2023-04-29T08:18:10.417Z,1015.08
2023-04-29T08:19:10.414Z,1015.13
2023-04-29T08:20:10.363Z,1015.16
2023-04-29T08:21:10.428Z,1015.15
2023-04-29T08:22:10.337Z,1015.14
2023-04-29T08:23:10.347Z,1015.17
2023-04-29T08:24:10.380Z,1015.15
2023-04-29T08:25:10.293Z,1015.20
2023-04-29T08:26:10.261Z,1015.25
2023-04-29T08:27:10.324Z,1015.20
2023-04-29T08:28:10.313Z,1015.21
2023-04-29T08:29:10.294Z,1015.22
2023-04-29T08:30:10.246Z,1015.25
2023-04-29T08:31:10.238Z,1015.25
2023-04-29T08:32:10.226Z,1015.27
2023-04-29T08:33:10.256Z,1015.30
2023-04-29T08:34:10.247Z,1015.31
2023-04-29T08:35:10.158Z,1015.27
2023-04-29T08:36:10.200Z,1015.30
2023-04-29T08:37:10.145Z,1015.24
2023-04-29T08:38:10.177Z,1015.29
2023-04-29T08:39:10.145Z,1015.27
2023-04-29T08:40:10.178Z,1015.36
2023-04-29T08:41:10.099Z,1015.29
2023-04-29T08:42:10.177Z,1015.36
2023-04-29T08:43:10.266Z,1015.37
2023-04-29T08:44:10.078Z,1015.35
2023-04-29T08:45:10.001Z,1015.37
2023-04-29T08:46:10.068Z,1015.39
2023-04-29T08:47:09.999Z,1015.43
2023-04-29T08:48:10.080Z,1015.50
2023-04-29T08:49:09.989Z,1015.46
2023-04-29T08:50:10.006Z,1015.48
2023-04-29T08:51:10.010Z,1015.35
2023-04-29T08:52:09.955Z,1015.44
2023-04-29T08:53:09.942Z,1015.42
2023-04-29T08:54:09.932Z,1015.50
2023-04-29T08:55:09.921Z,1015.46
2023-04-29T08:56:09.949Z,1015.45
2023-04-29T08:57:09.926Z,1015.47
2023-04-29T08:58:09.885Z,1015.52
2023-04-29T08:59:09.886Z,1015.56
2023-04-29T09:00:09.892Z,1015.56
2023-04-29T09:01:09.909Z,1015.63
2023-04-29T09:02:09.850Z,1015.58
2023-04-29T09:03:09.952Z,1015.67
2023-04-29T09:04:09.853Z,1015.59
2023-04-29T09:05:18.554Z,1015.63
2023-04-29T09:06:09.791Z,1015.62
2023-04-29T09:07:17.840Z,1015.67
2023-04-29T09:08:09.802Z,1015.68
2023-04-29T09:09:20.325Z,1015.71
2023-04-29T09:10:18.584Z,1015.69
2023-04-29T09:11:20.426Z,1015.66
2023-04-29T09:12:10.728Z,1015.75
2023-04-29T09:13:09.688Z,1015.71
2023-04-29T09:14:09.717Z,1015.69
2023-04-29T09:15:09.641Z,1015.71
2023-04-29T09:16:09.665Z,1015.71
2023-04-29T09:17:09.658Z,1015.75
2023-04-29T09:18:09.665Z,1015.68
2023-04-29T09:19:09.873Z,1015.68
2023-04-29T09:20:09.631Z,1015.65
2023-04-29T09:21:09.574Z,1015.66
2023-04-29T09:22:09.599Z,1015.70
2023-04-29T09:23:09.648Z,1015.67
2023-04-29T09:24:09.524Z,1015.70
2023-04-29T09:25:09.560Z,1015.71
2023-04-29T09:26:09.566Z,1015.66
2023-04-29T09:27:09.660Z,1015.71
2023-04-29T09:28:10.528Z,1015.76
2023-04-29T09:29:09.520Z,1015.74
2023-04-29T09:30:09.462Z,1015.70
2023-04-29T09:31:09.534Z,1015.75
2023-04-29T09:32:09.508Z,1015.77
2023-04-29T09:33:09.502Z,1015.87
2023-04-29T09:34:09.452Z,1015.81
2023-04-29T09:35:09.376Z,1015.85
2023-04-29T09:36:09.473Z,1015.87
2023-04-29T09:37:09.388Z,1015.82
2023-04-29T09:38:09.356Z,1015.83
2023-04-29T09:39:09.391Z,1015.83
2023-04-29T09:40:09.406Z,1015.93
2023-04-29T09:41:09.436Z,1015.88
2023-04-29T09:42:09.323Z,1015.86
2023-04-29T09:43:09.382Z,1015.89
2023-04-29T09:44:09.513Z,1015.86
2023-04-29T09:45:09.299Z,1015.86
2023-04-29T09:46:09.290Z,1015.88
2023-04-29T09:47:09.328Z,1015.87
2023-04-29T09:48:09.257Z,1015.90
2023-04-29T09:49:09.206Z,1015.95
2023-04-29T09:50:09.237Z,1015.90
2023-04-29T09:51:09.177Z,1015.97
2023-04-29T09:52:09.156Z,1015.97
2023-04-29T09:53:09.221Z,1016.05
2023-04-29T09:54:09.214Z,1016.01
2023-04-29T09:55:09.117Z,1016.04
2023-04-29T09:56:09.152Z,1016.08
2023-04-29T09:57:09.133Z,1016.04
2023-04-29T09:58:09.187Z,1016.07
2023-04-29T09:59:09.141Z,1016.15
2023-04-29T10:00:09.086Z,1016.10
2023-04-29T10:01:09.162Z,1016.13
2023-04-29T10:02:09.114Z,1016.12
2023-04-29T10:03:09.177Z,1016.13
2023-04-29T10:04:09.067Z,1016.15
2023-04-29T10:05:09.101Z,1016.17
2023-04-29T10:06:09.000Z,1016.14
2023-04-29T10:07:09.043Z,1016.19
2023-04-29T10:08:08.970Z,1016.21
2023-04-29T10:09:09.014Z,1016.24
2023-04-29T10:10:08.970Z,1016.21
2023-04-29T10:11:08.941Z,1016.15
2023-04-29T10:12:08.958Z,1016.16
2023-04-29T10:13:08.938Z,1016.21
2023-04-29T10:14:08.884Z,1016.19
2023-04-29T10:15:08.990Z,1016.23
2023-04-29T10:16:08.892Z,1016.26
2023-04-29T10:17:08.991Z,1016.21
2023-04-29T10:18:08.983Z,1016.31
2023-04-29T10:19:08.889Z,1016.24
2023-04-29T10:20:09.175Z,1016.21
2023-04-29T10:21:09.837Z,1016.27
2023-04-29T10:22:08.976Z,1016.31
2023-04-29T10:23:08.810Z,1016.29
2023-04-29T10:24:08.798Z,1016.28
2023-04-29T10:25:08.795Z,1016.26
2023-04-29T10:26:08.700Z,1016.26
2023-04-29T10:27:08.752Z,1016.23
2023-04-29T10:28:08.800Z,1016.23
2023-04-29T10:29:08.717Z,1016.25
2023-04-29T10:30:08.675Z,1016.26
2023-04-29T10:31:08.757Z,1016.27
2023-04-29T10:32:08.679Z,1016.23
2023-04-29T10:33:08.728Z,1016.24
2023-04-29T10:34:08.625Z,1016.32
2023-04-29T10:35:08.649Z,1016.28
2023-04-29T10:36:08.625Z,1016.27
2023-04-29T10:37:08.662Z,1016.29
2023-04-29T10:38:08.549Z,1016.26
2023-04-29T10:39:08.635Z,1016.35
2023-04-29T10:40:08.620Z,1016.36
2023-04-29T10:41:08.591Z,1016.34
2023-04-29T10:42:08.503Z,1016.34
2023-04-29T10:43:08.559Z,1016.37
2023-04-29T10:44:08.484Z,1016.40
2023-04-29T10:45:08.470Z,1016.35
2023-04-29T10:46:08.529Z,1016.34
2023-04-29T10:47:08.499Z,1016.36
2023-04-29T10:48:08.465Z,1016.40
2023-04-29T10:49:08.513Z,1016.39
2023-04-29T10:50:08.428Z,1016.38
2023-04-29T10:51:08.424Z,1016.38
2023-04-29T10:52:08.399Z,1016.37
2023-04-29T10:53:08.428Z,1016.39
2023-04-29T10:54:08.397Z,1016.38
2023-04-29T10:55:08.372Z,1016.38
2023-04-29T10:56:08.378Z,1016.42
2023-04-29T10:57:08.355Z,1016.40
2023-04-29T10:58:08.372Z,1016.37
2023-04-29T10:59:08.371Z,1016.38
2023-04-29T11:00:08.323Z,1016.46
2023-04-29T11:01:08.348Z,1016.43
2023-04-29T11:02:08.286Z,1016.44
2023-04-29T11:03:08.426Z,1016.48
2023-04-29T11:04:08.365Z,1016.44
2023-04-29T11:05:08.293Z,1016.52
2023-04-29T11:06:08.235Z,1016.53
2023-04-29T11:07:08.358Z,1016.47
2023-04-29T11:08:08.280Z,1016.49
2023-04-29T11:09:08.233Z,1016.54
2023-04-29T11:10:08.200Z,1016.49
2023-04-29T11:11:08.237Z,1016.55
2023-04-29T11:12:08.256Z,1016.58
2023-04-29T11:13:08.149Z,1016.61
2023-04-29T11:14:08.181Z,1016.53
2023-04-29T11:15:08.114Z,1016.61
2023-04-29T11:16:08.194Z,1016.62
2023-04-29T11:17:08.121Z,1016.49
2023-04-29T11:18:08.127Z,1016.57
2023-04-29T11:19:08.142Z,1016.60
2023-04-29T11:20:08.034Z,1016.58
2023-04-29T11:21:08.131Z,1016.57
2023-04-29T11:22:08.037Z,1016.59
2023-04-29T11:23:08.021Z,1016.54
2023-04-29T11:24:08.165Z,1016.56
2023-04-29T11:25:08.028Z,1016.48
2023-04-29T11:26:08.004Z,1016.55
2023-04-29T11:27:08.051Z,1016.48
2023-04-29T11:28:08.065Z,1016.49
2023-04-29T11:29:07.937Z,1016.46
2023-04-29T11:30:07.955Z,1016.47
2023-04-29T11:31:07.992Z,1016.52
2023-04-29T11:32:07.999Z,1016.55
2023-04-29T11:33:08.108Z,1016.51
2023-04-29T11:34:07.944Z,1016.57
2023-04-29T11:35:07.886Z,1016.54
2023-04-29T11:36:07.873Z,1016.55
2023-04-29T11:37:07.841Z,1016.59
2023-04-29T11:38:07.821Z,1016.55
2023-04-29T11:39:07.882Z,1016.57
2023-04-29T11:40:07.787Z,1016.62
2023-04-29T11:41:07.799Z,1016.64
2023-04-29T11:42:07.761Z,1016.63
2023-04-29T11:43:07.747Z,1016.62
2023-04-29T11:44:07.763Z,1016.55
2023-04-29T11:45:07.790Z,1016.62
2023-04-29T11:46:07.798Z,1016.59
2023-04-29T11:47:07.757Z,1016.58
2023-04-29T11:48:07.710Z,1016.58
2023-04-29T11:49:07.740Z,1016.65
2023-04-29T11:50:07.702Z,1016.64
2023-04-29T11:51:07.612Z,1016.66
2023-04-29T11:52:07.671Z,1016.66
2023-04-29T11:53:07.662Z,1016.64
2023-04-29T11:54:08.384Z,1016.66
2023-04-29T11:55:07.612Z,1016.64
2023-04-29T11:56:07.630Z,1016.62
2023-04-29T11:57:07.598Z,1016.70
2023-04-29T11:58:07.560Z,1016.70
2023-04-29T11:59:07.588Z,1016.71
2023-04-29T12:00:09.242Z,1016.70
2023-04-29T12:01:07.574Z,1016.70
2023-04-29T12:02:07.548Z,1016.66
2023-04-29T12:03:07.761Z,1016.71
2023-04-29T12:04:07.767Z,1016.66
2023-04-29T12:05:07.851Z,1016.66
2023-04-29T12:06:08.422Z,1016.70